createdAt,value
2023-05-18T00:02:43.555Z,5.97
2023-05-18T00:05:43.534Z,5.13
2023-05-18T00:08:41.909Z,5.32
2023-05-18T00:11:41.718Z,5.85
2023-05-18T00:14:39.854Z,5.88
2023-05-18T00:17:37.890Z,5.97
2023-05-18T00:20:37.116Z,5.90
2023-05-18T00:23:35.101Z,7.30
2023-05-18T00:26:33.029Z,6.75
2023-05-18T00:29:31.227Z,6.65
2023-05-18T00:32:29.123Z,6.10
2023-05-18T00:35:27.389Z,7.38
2023-05-18T00:38:25.507Z,5.95
2023-05-18T00:41:23.591Z,7.32
2023-05-18T00:44:21.733Z,6.75
2023-05-18T00:47:22.318Z,6.07
2023-05-18T00:50:20.548Z,6.35
2023-05-18T00:53:18.551Z,6.78
2023-05-18T00:56:16.904Z,5.45
2023-05-18T00:59:15.004Z,6.03
2023-05-18T01:02:15.334Z,7.35
2023-05-18T01:05:13.932Z,6.15
2023-05-18T01:08:11.901Z,6.13
2023-05-18T01:11:38.119Z,6.13
2023-05-18T01:15:04.125Z,5.75
2023-05-18T01:18:38.873Z,5.57
2023-05-18T01:21:50.064Z,6.68
2023-05-18T01:24:50.134Z,5.78
2023-05-18T01:27:50.094Z,6.13
2023-05-18T01:30:48.653Z,6.18
2023-05-18T01:33:46.888Z,6.72
2023-05-18T01:36:46.963Z,7.38
2023-05-18T01:39:44.966Z,6.75
2023-05-18T01:42:50.353Z,7.10
2023-05-18T01:45:51.998Z,7.93
2023-05-18T01:48:55.890Z,7.55
2023-05-18T01:51:57.184Z,6.80
2023-05-18T01:55:02.122Z,7.60
2023-05-18T01:58:01.427Z,6.50
2023-05-18T02:00:59.524Z,6.70
2023-05-18T02:03:57.604Z,7.20
2023-05-18T02:06:56.130Z,8.27
2023-05-18T02:09:54.153Z,7.20
2023-05-18T02:12:53.523Z,7.43
2023-05-18T02:15:51.529Z,7.35
2023-05-18T02:18:49.665Z,7.97
2023-05-18T02:21:47.533Z,7.70
2023-05-18T02:24:46.909Z,7.70
2023-05-18T02:27:44.724Z,8.27
2023-05-18T02:30:42.702Z,7.93
2023-05-18T02:33:41.381Z,7.82
2023-05-18T02:36:40.660Z,8.73
2023-05-18T02:39:38.498Z,7.35
2023-05-18T02:42:36.527Z,7.70
2023-05-18T02:45:34.478Z,7.15
2023-05-18T02:48:32.772Z,7.15
2023-05-18T02:51:31.928Z,7.50
2023-05-18T02:54:30.481Z,8.13
2023-05-18T02:57:28.424Z,7.80
2023-05-18T03:00:26.521Z,7.05
2023-05-18T03:03:27.204Z,6.60
2023-05-18T03:06:27.181Z,7.20
2023-05-18T03:09:25.335Z,8.93
2023-05-18T03:12:23.238Z,8.32
2023-05-18T03:15:21.391Z,7.70
2023-05-18T03:18:22.542Z,7.60
2023-05-18T03:21:20.760Z,7.63
2023-05-18T03:24:18.625Z,8.20
2023-05-18T03:27:17.165Z,7.05
2023-05-18T03:30:15.172Z,7.65
2023-05-18T03:33:13.197Z,8.23
2023-05-18T03:36:11.258Z,8.73
2023-05-18T03:39:10.553Z,7.68
2023-05-18T03:42:08.415Z,8.90
2023-05-18T03:45:07.003Z,8.55
2023-05-18T03:48:05.280Z,6.93
2023-05-18T03:51:03.168Z,9.10
2023-05-18T03:54:01.370Z,8.35
2023-05-18T03:56:59.352Z,8.85
2023-05-18T03:59:57.782Z,7.72
2023-05-18T04:04:02.026Z,7.88
2023-05-18T04:07:03.185Z,8.20
2023-05-18T04:10:01.101Z,8.93
2023-05-18T04:12:59.079Z,8.50
2023-05-18T04:15:58.908Z,8.23
2023-05-18T04:18:56.950Z,8.73
2023-05-18T04:21:55.107Z,9.10
2023-05-18T04:24:55.764Z,9.25
2023-05-18T04:27:53.631Z,9.00
2023-05-18T04:30:52.345Z,9.32
2023-05-18T04:33:51.866Z,9.55
2023-05-18T04:36:49.844Z,9.45
2023-05-18T04:39:47.945Z,9.82
2023-05-18T04:42:48.831Z,9.13
2023-05-18T04:45:47.047Z,8.73
2023-05-18T04:48:45.074Z,8.95
2023-05-18T04:51:44.061Z,7.28
2023-05-18T04:54:41.989Z,8.50
2023-05-18T04:57:40.096Z,8.20
2023-05-18T05:00:38.147Z,9.15
2023-05-18T05:03:36.359Z,8.73
2023-05-18T05:06:34.303Z,9.50
2023-05-18T05:09:32.441Z,9.60
2023-05-18T05:12:30.373Z,9.02
2023-05-18T05:15:28.497Z,8.63
2023-05-18T05:18:26.481Z,8.48
2023-05-18T05:21:24.605Z,8.38
2023-05-18T05:24:22.481Z,8.35
2023-05-18T05:31:36.197Z,8.07
2023-05-18T05:34:34.113Z,8.30
2023-05-18T05:37:32.040Z,8.35
2023-05-18T05:40:29.764Z,7.75
2023-05-18T05:43:27.731Z,8.15
2023-05-18T05:46:26.022Z,8.38
2023-05-18T05:49:23.854Z,7.32
2023-05-18T05:52:21.633Z,7.40
2023-05-18T05:55:19.687Z,8.10
2023-05-18T05:58:17.412Z,9.75
2023-05-18T06:01:15.566Z,8.80
2023-05-18T06:04:13.302Z,8.68
2023-05-18T06:07:11.657Z,8.48
2023-05-18T06:10:09.805Z,8.23
2023-05-18T06:13:07.975Z,8.18
2023-05-18T06:16:05.890Z,9.13
2023-05-18T06:19:04.144Z,9.90
2023-05-18T06:22:02.013Z,8.80
2023-05-18T06:25:00.146Z,8.90
2023-05-18T06:27:57.913Z,8.80
2023-05-18T06:30:55.715Z,8.50
2023-05-18T06:33:53.703Z,8.20
2023-05-18T06:36:51.574Z,9.10
2023-05-18T06:39:49.777Z,8.60
2023-05-18T06:42:47.614Z,9.20
2023-05-18T06:45:46.420Z,8.65
2023-05-18T06:48:46.328Z,8.23
2023-05-18T06:51:44.498Z,8.38
2023-05-18T06:54:42.754Z,8.90
2023-05-18T06:57:40.431Z,8.77
2023-05-18T07:00:39.649Z,8.93
2023-05-18T07:03:38.114Z,8.95
2023-05-18T07:06:36.016Z,9.07
2023-05-18T07:09:33.911Z,8.73
2023-05-18T07:12:32.077Z,9.05
2023-05-18T07:15:30.147Z,9.10
2023-05-18T07:18:28.346Z,9.15
2023-05-18T07:21:26.707Z,9.05
2023-05-18T07:24:24.669Z,8.82
2023-05-18T07:27:22.524Z,8.35
2023-05-18T07:30:20.470Z,8.95
2023-05-18T07:33:18.492Z,8.18
2023-05-18T07:36:16.854Z,9.25
2023-05-18T07:39:19.609Z,9.48
2023-05-18T07:45:15.824Z,9.73
2023-05-18T07:48:13.867Z,9.15
2023-05-18T07:51:12.837Z,9.10
2023-05-18T07:54:11.498Z,9.00
2023-05-18T07:57:09.463Z,8.70
2023-05-18T08:00:11.082Z,10.02
2023-05-18T08:03:09.626Z,9.18
2023-05-18T08:06:07.676Z,9.80
2023-05-18T08:09:05.617Z,10.55
2023-05-18T08:12:04.058Z,9.75
2023-05-18T08:15:01.895Z,9.15
2023-05-18T08:17:59.794Z,9.20
2023-05-18T08:20:57.548Z,9.15
2023-05-18T08:23:55.644Z,9.88
2023-05-18T08:26:53.636Z,9.02
2023-05-18T08:29:51.513Z,8.10
2023-05-18T08:32:49.716Z,10.00
2023-05-18T08:35:47.921Z,9.10
2023-05-18T08:38:45.661Z,9.35
2023-05-18T08:42:02.894Z,9.52
2023-05-18T08:45:13.548Z,9.35
2023-05-18T08:48:13.644Z,8.00
2023-05-18T08:51:12.068Z,8.48
2023-05-18T08:54:11.338Z,7.20
2023-05-18T08:57:10.204Z,6.97
2023-05-18T09:00:10.847Z,6.80
2023-05-18T09:03:09.631Z,6.32
2023-05-18T09:06:08.357Z,5.55
2023-05-18T09:09:07.042Z,6.60
2023-05-18T09:12:06.618Z,5.70
2023-05-18T09:15:04.701Z,4.90
2023-05-18T09:18:02.604Z,7.00
2023-05-18T09:21:00.506Z,6.78
2023-05-18T09:23:58.384Z,7.03
2023-05-18T09:26:56.307Z,6.85
2023-05-18T09:29:58.364Z,5.38
2023-05-18T09:32:56.174Z,5.30
2023-05-18T09:35:54.034Z,6.15
2023-05-18T09:38:53.762Z,4.75
2023-05-18T09:41:59.932Z,5.28
2023-05-18T09:44:57.710Z,4.78
2023-05-18T09:47:55.670Z,4.95
2023-05-18T09:50:53.366Z,5.78
2023-05-18T09:53:56.733Z,6.32
2023-05-18T09:57:08.909Z,5.72
2023-05-18T10:03:19.461Z,6.50
2023-05-18T10:06:20.629Z,5.57
2023-05-18T10:09:18.610Z,5.50
2023-05-18T10:12:20.532Z,6.13
2023-05-18T10:15:21.281Z,5.40
2023-05-18T10:18:23.540Z,5.25
2023-05-18T10:21:25.130Z,5.72
2023-05-18T10:24:24.482Z,5.35
2023-05-18T10:27:28.956Z,5.57
2023-05-18T10:30:28.138Z,6.20
2023-05-18T10:33:30.150Z,5.80
2023-05-18T10:36:30.554Z,6.63
2023-05-18T10:39:29.152Z,7.68
2023-05-18T10:42:27.282Z,7.32
2023-05-18T10:45:26.417Z,8.43
2023-05-18T10:48:25.591Z,7.93
2023-05-18T10:51:24.758Z,8.68
2023-05-18T10:54:24.046Z,9.02
2023-05-18T10:57:24.856Z,9.38
2023-05-18T11:00:23.044Z,10.90
2023-05-18T11:03:21.547Z,9.60
2023-05-18T11:10:47.714Z,11.02
2023-05-18T11:13:50.900Z,11.75
2023-05-18T11:16:48.869Z,12.90
2023-05-18T11:20:13.533Z,14.85
2023-05-18T11:23:11.403Z,13.85
2023-05-18T11:26:17.104Z,14.07
2023-05-18T11:29:20.594Z,12.75
2023-05-18T11:32:30.665Z,11.40
2023-05-18T11:35:29.462Z,10.35
2023-05-18T11:38:47.164Z,10.40
2023-05-18T11:41:47.440Z,10.10
2023-05-18T11:44:54.343Z,10.00
2023-05-18T11:48:02.431Z,10.55
2023-05-18T11:51:00.425Z,12.13
2023-05-18T11:53:59.792Z,10.02
2023-05-18T11:56:59.710Z,10.52
2023-05-18T11:59:58.764Z,9.95
2023-05-18T12:02:57.841Z,11.38
2023-05-18T12:06:00.927Z,10.32
2023-05-18T12:11:57.434Z,12.07
2023-05-18T12:14:59.449Z,12.23
2023-05-18T12:18:00.295Z,10.65
2023-05-18T12:20:58.069Z,10.27
2023-05-18T12:24:00.380Z,9.82
2023-05-18T12:27:00.695Z,12.30
2023-05-18T12:29:58.534Z,10.00
2023-05-18T12:32:57.784Z,10.18
2023-05-18T12:35:56.117Z,10.05
2023-05-18T12:38:53.857Z,8.95
2023-05-18T12:41:51.727Z,8.40
2023-05-18T12:44:51.252Z,9.73
2023-05-18T12:47:54.888Z,10.10
2023-05-18T12:50:53.143Z,9.77
2023-05-18T12:53:51.644Z,9.20
2023-05-18T12:57:01.853Z,8.80
2023-05-18T13:00:01.516Z,8.20
2023-05-18T13:03:18.056Z,8.55
2023-05-18T13:06:19.073Z,9.80
2023-05-18T13:09:17.405Z,9.00
2023-05-18T13:12:15.200Z,8.73
2023-05-18T13:15:18.451Z,8.05
2023-05-18T13:18:16.700Z,7.82
2023-05-18T13:21:14.440Z,8.07
2023-05-18T13:24:12.567Z,8.57
2023-05-18T13:27:10.340Z,9.82
2023-05-18T13:30:08.962Z,9.38
2023-05-18T13:33:11.008Z,9.30
2023-05-18T13:36:09.284Z,9.17
2023-05-18T13:39:07.723Z,9.25
2023-05-18T13:42:05.717Z,9.75
2023-05-18T13:45:03.569Z,11.02
2023-05-18T13:48:01.549Z,12.07
2023-05-18T13:50:59.396Z,9.75
2023-05-18T13:53:57.385Z,7.63
2023-05-18T13:56:55.318Z,6.25
2023-05-18T13:59:54.802Z,5.63
2023-05-18T14:02:53.663Z,4.75
2023-05-18T14:05:51.770Z,4.57
2023-05-18T14:08:49.470Z,4.53
2023-05-18T14:11:47.322Z,4.28
2023-05-18T14:14:45.314Z,3.83
2023-05-18T14:17:44.284Z,3.72
2023-05-18T14:20:42.078Z,5.57
2023-05-18T14:23:39.898Z,7.10
2023-05-18T14:26:38.243Z,7.45
2023-05-18T14:29:36.331Z,6.22
2023-05-18T14:32:34.252Z,6.03
2023-05-18T14:35:33.867Z,4.88
2023-05-18T14:38:31.668Z,4.45
2023-05-18T14:41:29.600Z,4.53
2023-05-18T14:44:27.329Z,4.30
2023-05-18T14:47:25.171Z,4.15
2023-05-18T14:50:22.929Z,3.65
2023-05-18T14:53:21.283Z,4.18
2023-05-18T14:56:22.410Z,3.90
2023-05-18T14:59:22.671Z,3.90
2023-05-18T15:02:20.655Z,3.58
2023-05-18T15:05:18.657Z,4.18
2023-05-18T15:08:16.542Z,4.18
2023-05-18T15:11:14.354Z,3.75
2023-05-18T15:14:32.035Z,3.95
2023-05-18T15:17:30.290Z,4.80
2023-05-18T15:20:28.082Z,3.92
2023-05-18T15:23:26.892Z,4.22
2023-05-18T15:26:25.080Z,4.10
2023-05-18T15:29:22.918Z,4.22
2023-05-18T15:32:20.737Z,3.72
2023-05-18T15:35:18.666Z,4.05
2023-05-18T15:38:22.752Z,3.55
2023-05-18T15:41:20.612Z,3.85
2023-05-18T15:44:18.305Z,3.92
2023-05-18T15:47:16.221Z,3.60
2023-05-18T16:07:15.874Z,3.03
2023-05-18T16:10:14.717Z,3.33
2023-05-18T16:13:12.692Z,3.50
2023-05-18T16:24:02.910Z,4.20
2023-05-18T16:27:00.596Z,4.05
2023-05-18T16:38:52.450Z,3.45
2023-05-18T16:41:50.381Z,3.80
2023-05-18T16:44:48.214Z,3.33
2023-05-18T16:47:46.051Z,3.30
2023-05-18T16:50:44.160Z,3.08
2023-05-18T16:53:43.103Z,2.90
2023-05-18T16:56:41.062Z,3.42
2023-05-18T16:59:38.753Z,3.30
2023-05-18T17:02:38.311Z,3.65
2023-05-18T17:05:37.314Z,3.75
2023-05-18T17:08:35.114Z,3.70
2023-05-18T17:11:32.812Z,3.35
2023-05-18T17:14:30.670Z,3.78
2023-05-18T17:17:28.531Z,3.30
2023-05-18T17:20:26.690Z,3.10
2023-05-18T17:23:24.371Z,3.10
2023-05-18T17:26:22.825Z,3.10
2023-05-18T17:29:21.933Z,3.00
2023-05-18T17:32:19.841Z,3.10
2023-05-18T17:35:18.088Z,3.30
2023-05-18T17:38:17.705Z,2.95
2023-05-18T17:41:16.119Z,3.30
2023-05-18T17:44:14.632Z,2.78
2023-05-18T17:47:12.576Z,2.85
2023-05-18T17:50:10.608Z,2.88
2023-05-18T17:53:08.314Z,2.78
2023-05-18T17:56:06.323Z,3.03
2023-05-18T17:59:05.644Z,3.15
2023-05-18T18:02:03.616Z,2.72
2023-05-18T18:05:01.303Z,3.42
2023-05-18T18:07:59.346Z,3.00
2023-05-18T18:10:57.708Z,3.10
2023-05-18T18:13:55.968Z,3.00
2023-05-18T18:16:53.675Z,3.08
2023-05-18T18:19:51.725Z,2.92
2023-05-18T18:22:49.482Z,3.10
2023-05-18T18:25:47.419Z,2.97
2023-05-18T18:28:45.174Z,3.40
2023-05-18T18:31:43.002Z,3.17
2023-05-18T18:34:40.697Z,2.90
2023-05-18T18:37:39.053Z,3.47
2023-05-18T18:40:36.863Z,2.88
2023-05-18T18:43:35.868Z,3.20
2023-05-18T18:46:33.864Z,2.55
2023-05-18T18:49:31.699Z,2.90
2023-05-18T18:52:29.398Z,3.10
2023-05-18T18:55:27.349Z,2.75
2023-05-18T18:58:25.131Z,2.50
2023-05-18T19:01:23.050Z,3.08
2023-05-18T19:04:21.096Z,3.03
2023-05-18T19:07:19.018Z,2.67
2023-05-18T19:10:17.203Z,2.97
2023-05-18T19:13:15.104Z,2.80
2023-05-18T19:16:17.616Z,2.85
2023-05-18T19:19:15.555Z,2.80
2023-05-18T19:22:13.300Z,2.85
2023-05-18T19:25:11.415Z,2.80
2023-05-18T19:28:09.431Z,2.63
2023-05-18T19:31:10.616Z,3.10
2023-05-18T19:34:08.360Z,3.60
2023-05-18T19:37:06.496Z,2.80
2023-05-18T19:40:05.207Z,2.85
2023-05-18T19:43:03.045Z,3.03
2023-05-18T19:46:01.358Z,2.70
2023-05-18T19:48:59.188Z,3.13
2023-05-18T19:51:56.916Z,2.63
2023-05-18T19:54:54.755Z,3.28
2023-05-18T19:57:52.514Z,2.80
2023-05-18T20:00:53.196Z,3.15
2023-05-18T20:03:52.062Z,2.85
2023-05-18T20:06:50.449Z,3.20
2023-05-18T20:09:48.368Z,3.20
2023-05-18T20:12:46.205Z,3.08
2023-05-18T20:15:44.139Z,3.08
2023-05-18T20:18:42.123Z,3.28
2023-05-18T20:21:41.159Z,3.08
2023-05-18T20:24:39.210Z,3.58
2023-05-18T20:27:37.504Z,3.00
2023-05-18T20:30:35.616Z,3.45
2023-05-18T20:33:34.794Z,3.50
2023-05-18T20:36:33.105Z,3.60
2023-05-18T20:39:30.956Z,3.63
2023-05-18T20:42:38.996Z,3.88
2023-05-18T20:45:37.081Z,3.50
2023-05-18T20:48:36.354Z,3.05
2023-05-18T20:51:34.624Z,3.35
2023-05-18T20:54:32.502Z,3.13
2023-05-18T20:57:30.419Z,4.20
2023-05-18T21:00:28.322Z,3.72
2023-05-18T21:03:26.114Z,3.67
2023-05-18T21:06:24.817Z,3.55
2023-05-18T21:09:22.525Z,3.40
2023-05-18T21:12:20.438Z,3.67
2023-05-18T21:15:18.270Z,4.28
2023-05-18T21:18:16.491Z,3.58
2023-05-18T21:21:14.312Z,3.75
2023-05-18T21:24:12.313Z,3.78
2023-05-18T21:27:10.185Z,3.72
2023-05-18T21:30:08.769Z,3.70
2023-05-18T21:33:06.614Z,4.10
2023-05-18T21:36:04.826Z,3.65
2023-05-18T21:39:04.499Z,3.35
2023-05-18T21:42:04.191Z,4.28
2023-05-18T21:45:02.032Z,3.85
2023-05-18T21:48:00.703Z,3.97
2023-05-18T21:50:58.484Z,3.58
2023-05-18T21:53:56.474Z,3.80
2023-05-18T21:56:54.167Z,3.95
2023-05-18T21:59:52.028Z,3.70
2023-05-18T22:02:49.811Z,4.07
2023-05-18T22:05:47.796Z,4.10
2023-05-18T22:08:46.920Z,4.88
2023-05-18T22:11:44.769Z,4.18
2023-05-18T22:14:42.446Z,3.80
2023-05-18T22:17:40.813Z,4.07
2023-05-18T22:20:39.399Z,3.88
2023-05-18T22:23:39.312Z,4.20
2023-05-18T22:26:37.174Z,3.85
2023-05-18T22:29:34.967Z,3.72
2023-05-18T22:32:32.937Z,4.03
2023-05-18T22:35:31.351Z,4.30
2023-05-18T22:38:29.238Z,3.70
2023-05-18T22:41:27.633Z,3.85
2023-05-18T22:44:25.362Z,4.97
2023-05-18T22:47:24.135Z,3.90
2023-05-18T22:50:21.963Z,3.58
2023-05-18T22:53:19.768Z,3.90
2023-05-18T22:56:20.592Z,3.53
2023-05-18T22:59:18.436Z,3.78
2023-05-18T23:02:16.427Z,3.97
2023-05-18T23:05:14.643Z,4.20
2023-05-18T23:08:13.502Z,4.10
2023-05-18T23:11:12.090Z,3.47
2023-05-18T23:14:10.345Z,4.28
2023-05-18T23:17:08.616Z,3.90
2023-05-18T23:20:07.379Z,3.97
2023-05-18T23:23:05.505Z,4.00
2023-05-18T23:26:03.233Z,4.15
2023-05-18T23:29:01.308Z,4.00
2023-05-18T23:31:59.014Z,4.35
2023-05-18T23:34:58.362Z,3.90
2023-05-18T23:37:58.214Z,4.20
2023-05-18T23:40:56.688Z,4.65
2023-05-18T23:43:54.903Z,4.55
2023-05-18T23:46:53.016Z,4.45
2023-05-18T23:49:51.104Z,4.28
2023-05-18T23:52:52.856Z,4.75
2023-05-18T23:55:51.278Z,4.13
2023-05-18T23:58:49.534Z,4.65
